createdAt,value
2022-10-09T04:02:03.540Z,91.57
2022-10-09T04:06:16.132Z,91.74
2022-10-09T04:10:27.667Z,91.22
2022-10-09T04:14:40.434Z,91.17
2022-10-09T04:18:52.119Z,91.01
2022-10-09T04:23:03.625Z,90.70
2022-10-09T04:27:15.411Z,90.81
2022-10-09T04:31:26.988Z,90.92
2022-10-09T04:35:42.472Z,90.74
2022-10-09T04:39:54.015Z,91.19
2022-10-09T04:44:05.679Z,91.11
2022-10-09T04:48:17.195Z,91.39
2022-10-09T04:52:29.071Z,91.55
2022-10-09T04:56:40.640Z,91.41
2022-10-09T05:00:52.197Z,91.50
2022-10-09T05:05:04.049Z,91.80
2022-10-09T05:09:15.599Z,92.01
2022-10-09T05:13:30.441Z,92.25
2022-10-09T05:17:41.974Z,91.65
2022-10-09T05:21:54.939Z,91.69
2022-10-09T05:26:09.344Z,91.61
2022-10-09T05:30:20.816Z,92.22
2022-10-09T05:34:34.214Z,92.25
2022-10-09T05:38:46.184Z,92.07
2022-10-09T05:42:57.690Z,92.76
2022-10-09T05:47:09.139Z,92.72
2022-10-09T05:51:29.521Z,92.18
2022-10-09T05:55:41.192Z,92.10
2022-10-09T05:59:52.657Z,92.17
2022-10-09T06:04:05.083Z,92.85
2022-10-09T06:08:16.547Z,93.00
2022-10-09T06:12:27.998Z,92.47
2022-10-09T06:16:42.203Z,92.22
2022-10-09T06:20:59.391Z,92.15
2022-10-09T06:25:11.253Z,91.78
2022-10-09T06:29:22.838Z,92.94
2022-10-09T06:33:37.027Z,90.98
2022-10-09T06:37:48.455Z,91.18
2022-10-09T06:41:59.934Z,90.33
2022-10-09T06:46:35.318Z,90.28
2022-10-09T06:50:46.879Z,90.75
2022-10-09T06:54:58.356Z,90.44
2022-10-09T06:59:10.991Z,90.74
2022-10-09T07:03:22.502Z,90.38
2022-10-09T07:07:38.805Z,90.02
2022-10-09T07:11:50.287Z,84.52
2022-10-09T07:16:04.807Z,84.21
2022-10-09T07:20:16.734Z,83.82
2022-10-09T07:24:28.280Z,83.88
2022-10-09T07:28:41.267Z,84.59
2022-10-09T07:32:52.888Z,84.03
2022-10-09T07:37:04.406Z,84.52
2022-10-09T07:41:15.972Z,85.02
2022-10-09T07:45:27.698Z,86.01
2022-10-09T07:49:39.223Z,84.86
2022-10-09T07:53:51.618Z,85.53
2022-10-09T07:58:03.281Z,85.20
2022-10-09T08:02:14.842Z,85.97
2022-10-09T08:06:26.986Z,85.49
2022-10-09T08:10:38.508Z,85.79
2022-10-09T08:14:50.027Z,84.87
2022-10-09T08:19:02.535Z,85.22
2022-10-09T08:23:14.128Z,85.32
2022-10-09T08:27:25.705Z,84.12
2022-10-09T08:31:37.496Z,83.94
2022-10-09T08:35:49.939Z,84.01
2022-10-09T08:40:01.832Z,83.71
2022-10-09T08:44:25.528Z,83.12
2022-10-09T08:48:43.827Z,82.55
2022-10-09T08:53:14.745Z,82.06
2022-10-09T08:57:32.574Z,81.97
2022-10-09T09:01:49.746Z,81.45
2022-10-09T09:06:09.557Z,81.18
2022-10-09T09:10:38.697Z,81.21
2022-10-09T09:15:07.786Z,80.56
2022-10-09T09:19:48.926Z,79.77
2022-10-09T09:24:06.910Z,79.39
2022-10-09T09:28:25.186Z,78.56
2022-10-09T09:32:39.723Z,78.43
2022-10-09T09:36:57.240Z,77.40
2022-10-09T09:41:09.317Z,77.41
2022-10-09T09:45:25.465Z,76.49
2022-10-09T09:49:40.398Z,75.17
2022-10-09T09:54:14.576Z,72.77
2022-10-09T09:58:47.910Z,70.36
2022-10-09T10:03:16.796Z,69.82
2022-10-09T10:07:34.643Z,67.65
2022-10-09T10:11:57.378Z,67.20
2022-10-09T10:16:09.366Z,64.38
2022-10-09T10:20:21.076Z,63.65
2022-10-09T10:24:41.910Z,62.01
2022-10-09T10:29:02.000Z,60.45
2022-10-09T10:33:22.159Z,60.87
2022-10-09T10:37:33.693Z,59.76
2022-10-09T10:41:51.056Z,59.46
2022-10-09T10:46:28.211Z,57.83
2022-10-09T10:51:11.363Z,57.75
2022-10-09T10:56:04.184Z,56.84
2022-10-09T11:00:17.439Z,55.64
2022-10-09T11:04:35.041Z,55.50
2022-10-09T11:09:05.868Z,55.18
2022-10-09T11:13:34.898Z,54.63
2022-10-09T11:18:07.998Z,53.06
2022-10-09T11:22:22.321Z,53.68
2022-10-09T11:26:45.971Z,52.68
2022-10-09T11:31:02.666Z,52.71
2022-10-09T11:35:20.690Z,54.54
2022-10-09T11:39:32.844Z,51.65
2022-10-09T11:43:58.049Z,52.31
2022-10-09T11:48:18.322Z,52.05
2022-10-09T11:52:41.928Z,51.33
2022-10-09T11:57:06.389Z,52.48
2022-10-09T12:01:29.488Z,51.67
2022-10-09T12:05:44.170Z,52.10
2022-10-09T12:10:09.087Z,52.35
2022-10-09T12:14:25.840Z,51.04
2022-10-09T12:18:46.809Z,51.11
2022-10-09T12:23:25.339Z,51.98
2022-10-09T12:27:39.237Z,51.93
2022-10-09T12:31:53.901Z,51.15
2022-10-09T12:36:22.417Z,50.55
2022-10-09T12:40:33.923Z,50.99
2022-10-09T12:44:46.690Z,51.58
2022-10-09T12:48:59.621Z,50.83
2022-10-09T12:53:26.673Z,50.59
2022-10-09T12:57:38.971Z,50.93
2022-10-09T13:01:55.919Z,51.24
2022-10-09T13:06:15.737Z,49.66
2022-10-09T13:10:27.961Z,50.23
2022-10-09T13:15:00.251Z,50.47
2022-10-09T13:19:32.929Z,51.37
2022-10-09T13:23:44.447Z,50.41
2022-10-09T13:27:56.914Z,51.20
2022-10-09T13:32:12.329Z,51.00
2022-10-09T13:36:23.799Z,50.54
2022-10-09T13:40:35.305Z,50.58
2022-10-09T13:44:46.794Z,51.45
2022-10-09T13:48:58.313Z,51.59
2022-10-09T13:53:10.312Z,51.47
2022-10-09T13:57:21.840Z,52.09
2022-10-09T14:01:33.423Z,50.14
2022-10-09T14:05:45.212Z,50.96
2022-10-09T14:09:56.719Z,51.03
2022-10-09T14:14:08.285Z,50.93
2022-10-09T14:18:19.834Z,51.10
2022-10-09T14:22:31.370Z,50.72
2022-10-09T14:26:44.276Z,51.17
2022-10-09T14:30:58.111Z,51.99
2022-10-09T14:35:09.862Z,52.65
2022-10-09T14:39:21.343Z,53.13
2022-10-09T14:43:32.924Z,52.94
2022-10-09T14:47:44.425Z,52.39
2022-10-09T14:51:55.955Z,52.55
2022-10-09T14:56:11.934Z,52.52
2022-10-09T15:00:23.506Z,52.67
2022-10-09T15:04:35.106Z,53.27
2022-10-09T15:08:46.647Z,53.83
2022-10-09T15:12:58.155Z,54.07
2022-10-09T15:17:09.699Z,54.26
2022-10-09T15:21:28.273Z,54.34
2022-10-09T15:25:39.780Z,55.00
2022-10-09T15:29:51.361Z,55.18
2022-10-09T15:34:03.549Z,55.48
2022-10-09T15:38:16.906Z,55.94
2022-10-09T15:42:28.403Z,55.79
2022-10-09T15:46:39.906Z,56.33
2022-10-09T15:50:53.581Z,56.88
2022-10-09T15:55:05.491Z,57.22
2022-10-09T15:59:17.049Z,57.24
2022-10-09T16:03:29.005Z,58.15
2022-10-09T16:07:41.294Z,58.39
2022-10-09T16:11:52.897Z,59.16
2022-10-09T16:16:09.227Z,59.54
2022-10-09T16:20:20.720Z,59.89
2022-10-09T16:24:32.606Z,60.35
2022-10-09T16:28:45.403Z,61.60
2022-10-09T16:32:56.983Z,63.60
2022-10-09T16:37:08.498Z,63.80
2022-10-09T16:41:21.548Z,65.59
2022-10-09T16:45:33.111Z,67.42
2022-10-09T16:49:44.622Z,68.44
2022-10-09T16:53:58.828Z,69.49
2022-10-09T16:58:10.344Z,69.00
2022-10-09T17:02:21.910Z,69.72
2022-10-09T17:06:33.511Z,70.74
2022-10-09T17:10:45.239Z,71.23
2022-10-09T17:14:56.993Z,71.78
2022-10-09T17:19:08.731Z,70.46
2022-10-09T17:23:20.268Z,69.72
2022-10-09T17:27:31.804Z,68.12
2022-10-09T17:31:43.392Z,68.52
2022-10-09T17:35:55.002Z,70.44
2022-10-09T17:40:06.828Z,71.68
2022-10-09T17:44:18.316Z,72.98
2022-10-09T17:48:32.982Z,73.72
2022-10-09T17:52:44.539Z,73.51
2022-10-09T17:56:56.078Z,71.57
2022-10-09T18:01:09.023Z,72.52
2022-10-09T18:05:20.579Z,72.79
2022-10-09T18:09:32.764Z,74.06
2022-10-09T18:14:28.293Z,76.68
2022-10-09T18:18:51.186Z,78.15
2022-10-09T18:23:07.261Z,80.84
2022-10-09T18:27:23.957Z,83.19
2022-10-09T18:31:35.968Z,83.62
2022-10-09T18:35:57.243Z,79.02
2022-10-09T18:40:09.117Z,80.44
2022-10-09T18:44:44.402Z,76.27
2022-10-09T18:53:58.178Z,72.85
2022-10-09T18:58:58.014Z,72.19
2022-10-09T19:03:17.560Z,72.54
2022-10-09T19:07:29.390Z,73.67
2022-10-09T19:12:08.703Z,74.01
2022-10-09T19:17:00.748Z,74.27
2022-10-09T19:21:34.469Z,74.38
2022-10-09T19:27:06.641Z,74.53
2022-10-09T19:31:51.026Z,76.52
2022-10-09T19:41:54.055Z,76.43
2022-10-09T19:46:52.231Z,75.62
2022-10-09T19:51:22.616Z,75.86
2022-10-09T20:00:27.058Z,75.82
2022-10-09T20:04:38.913Z,77.52
2022-10-09T20:08:50.601Z,77.94
2022-10-09T20:13:02.316Z,78.21
2022-10-09T20:17:13.806Z,77.53
2022-10-09T20:21:25.847Z,78.16
2022-10-09T20:25:37.379Z,78.07
2022-10-09T20:29:48.909Z,78.84
2022-10-09T20:34:00.385Z,80.41
2022-10-09T20:38:11.950Z,81.73
2022-10-09T20:42:23.463Z,81.57
2022-10-09T20:46:37.399Z,82.49
2022-10-09T20:50:49.063Z,83.06
2022-10-09T20:55:00.656Z,82.66
2022-10-09T20:59:12.938Z,83.24
2022-10-09T21:03:25.010Z,82.97
2022-10-09T21:07:36.524Z,82.94
2022-10-09T21:11:48.153Z,83.21
2022-10-09T21:15:59.738Z,82.67
2022-10-09T21:20:11.264Z,82.76
2022-10-09T21:24:22.817Z,82.86
2022-10-09T21:28:34.375Z,83.48
